Wetterdaten: Woche 05.08.02 - 11.08.02 (KW32)
Datum Zeit Temperatur Luftfeuchte Luftdruck Regenmenge Wind Richtung Taupunkt Windchill
05.08.2002 00:00 14.6 C 100 % 1014.9 hPa 0.0 l/m 0.0 km/h (0 Bft) N 14.6 C 14.6 C
05.08.2002 01:00 14.6 C 100 % 1014.9 hPa 0.0 l/m 0.0 km/h (0 Bft) N 14.6 C 14.6 C
05.08.2002 02:00 14.3 C 100 % 1014.9 hPa 0.0 l/m 0.1 km/h (0 Bft) N 14.3 C 14.3 C
05.08.2002 03:00 13.8 C 100 % 1014.9 hPa 0.0 l/m 0.0 km/h (0 Bft) N 13.8 C 13.8 C
05.08.2002 04:00 13.7 C 100 % 1014.9 hPa 0.0 l/m 0.0 km/h (0 Bft) N 13.7 C 13.7 C
05.08.2002 05:00 13.5 C 100 % 1014.9 hPa 0.0 l/m 0.0 km/h (0 Bft) N 13.5 C 13.5 C
05.08.2002 06:00 13.4 C 100 % 1014.9 hPa 0.0 l/m 0.6 km/h (0 Bft) NW 13.4 C 13.4 C
05.08.2002 07:00 13.3 C 100 % 1014.9 hPa 0.0 l/m 0.2 km/h (0 Bft) W-NW 13.3 C 13.3 C
05.08.2002 08:00 13.9 C 100 % 1014.9 hPa 0.0 l/m 0.4 km/h (0 Bft) O-SO 13.9 C 13.9 C
05.08.2002 09:00 15.0 C 100 % 1015.9 hPa 0.0 l/m 1.0 km/h (0 Bft) O-SO 14.9 C 15.0 C
05.08.2002 10:00 17.2 C 87 % 1015.7 hPa 0.0 l/m 1.1 km/h (0 Bft) W 14.9 C 17.2 C
05.08.2002 11:00 19.3 C 70 % 1014.9 hPa 0.0 l/m 6.8 km/h (2 Bft) NW 13.6 C 19.3 C
05.08.2002 12:00 20.9 C 55 % 1014.9 hPa 0.0 l/m 10.1 km/h (2 Bft) NW 11.5 C 20.9 C
05.08.2002 13:00 22.1 C 48 % 1014.4 hPa 0.0 l/m 12.3 km/h (3 Bft) NW 10.5 C 22.1 C
05.08.2002 14:00 23.3 C 45 % 1013.9 hPa 0.0 l/m 6.5 km/h (2 Bft) NW 10.5 C 23.3 C
05.08.2002 15:00 23.9 C 43 % 1013.9 hPa 0.0 l/m 6.6 km/h (2 Bft) NW 10.5 C 23.9 C
05.08.2002 16:00 24.8 C 42 % 1012.8 hPa 0.0 l/m 5.1 km/h (1 Bft) W-NW 10.9 C 24.8 C
05.08.2002 17:00 23.8 C 45 % 1012.8 hPa 0.0 l/m 2.0 km/h (1 Bft) NW 11.0 C 23.8 C
05.08.2002 18:00 23.0 C 48 % 1012.8 hPa 0.0 l/m 1.2 km/h (1 Bft) NW 11.5 C 23.0 C
05.08.2002 19:00 22.3 C 52 % 1012.8 hPa 0.0 l/m 1.6 km/h (1 Bft) W-NW 12.0 C 22.3 C
05.08.2002 20:00 20.1 C 63 % 1012.8 hPa 0.0 l/m 0.0 km/h (0 Bft) N 12.9 C 20.1 C
05.08.2002 21:00 18.6 C 70 % 1013.6 hPa 0.0 l/m 0.0 km/h (0 Bft) N 12.9 C 18.6 C
05.08.2002 22:00 16.9 C 76 % 1013.9 hPa 0.0 l/m 1.6 km/h (1 Bft) O 12.7 C 16.9 C
05.08.2002 23:00 16.2 C 80 % 1013.9 hPa 0.0 l/m 5.0 km/h (1 Bft) O-SO 12.7 C 16.2 C
06.08.2002 00:00 15.6 C 83 % 1013.9 hPa 0.0 l/m 0.0 km/h (0 Bft) N 12.7 C 15.6 C
06.08.2002 01:00 15.0 C 87 % 1013.7 hPa 0.0 l/m 0.2 km/h (0 Bft) O-SO 12.9 C 15.0 C
06.08.2002 02:00 14.9 C 89 % 1013.1 hPa 0.0 l/m 0.8 km/h (0 Bft) O-SO 13.1 C 14.9 C
06.08.2002 03:00 14.7 C 89 % 1012.7 hPa 0.0 l/m 0.7 km/h (0 Bft) O-SO 12.9 C 14.7 C
06.08.2002 04:00 14.5 C 91 % 1011.8 hPa 0.0 l/m 0.7 km/h (0 Bft) O-SO 13.2 C 14.5 C
06.08.2002 05:00 14.4 C 92 % 1011.8 hPa 0.0 l/m 0.1 km/h (0 Bft) N 13.1 C 14.4 C
06.08.2002 06:00 14.5 C 94 % 1012.3 hPa 0.0 l/m 0.0 km/h (0 Bft) N 13.5 C 14.5 C
06.08.2002 07:00 14.8 C 97 % 1012.3 hPa 1.5 l/m 0.0 km/h (0 Bft) N 14.3 C 14.8 C
06.08.2002 08:00 15.2 C 98 % 1012.1 hPa 0.3 l/m 0.4 km/h (0 Bft) O 14.9 C 15.2 C
06.08.2002 09:00 15.5 C 98 % 1012.8 hPa 0.0 l/m 0.3 km/h (0 Bft) O 15.2 C 15.5 C
06.08.2002 10:00 16.4 C 94 % 1012.8 hPa 0.0 l/m 0.4 km/h (0 Bft) O 15.4 C 16.4 C
06.08.2002 11:00 16.5 C 91 % 1012.8 hPa 0.3 l/m 0.9 km/h (0 Bft) W-NW 15.1 C 16.5 C
06.08.2002 12:00 16.6 C 89 % 1012.8 hPa 0.0 l/m 5.1 km/h (1 Bft) W-NW 14.8 C 16.6 C
06.08.2002 13:00 16.9 C 86 % 1012.8 hPa 0.0 l/m 5.0 km/h (1 Bft) W 14.5 C 16.9 C
06.08.2002 14:00 18.8 C 75 % 1012.8 hPa 0.0 l/m 2.7 km/h (1 Bft) W 14.3 C 18.8 C
06.08.2002 15:00 20.2 C 66 % 1012.8 hPa 0.0 l/m 1.2 km/h (1 Bft) NW 13.7 C 20.2 C
06.08.2002 16:00 19.4 C 67 % 1012.8 hPa 0.0 l/m 12.9 km/h (3 Bft) NW 13.1 C 19.4 C
06.08.2002 17:00 19.0 C 68 % 1012.8 hPa 0.0 l/m 10.1 km/h (2 Bft) NW 13.1 C 19.0 C
06.08.2002 18:00 18.7 C 74 % 1013.0 hPa 0.0 l/m 2.6 km/h (1 Bft) O-SO 13.8 C 18.7 C
06.08.2002 19:00 19.1 C 71 % 1013.9 hPa 0.0 l/m 4.8 km/h (1 Bft) SO 13.8 C 19.1 C
06.08.2002 20:00 16.2 C 85 % 1014.5 hPa 0.9 l/m 8.0 km/h (2 Bft) NW 13.6 C 16.2 C
06.08.2002 21:00 14.2 C 96 % 1015.3 hPa 0.3 l/m 3.6 km/h (1 Bft) SO 13.6 C 14.2 C
06.08.2002 22:00 14.3 C 98 % 1015.9 hPa 0.0 l/m 2.2 km/h (1 Bft) SO 14.0 C 14.3 C
06.08.2002 23:00 14.4 C 99 % 1015.9 hPa 1.2 l/m 0.7 km/h (0 Bft) SO 14.3 C 14.4 C
07.08.2002 00:00 14.4 C 100 % 1015.9 hPa 0.3 l/m 2.9 km/h (1 Bft) SO 14.3 C 14.4 C
07.08.2002 01:00 14.3 C 98 % 1015.9 hPa 0.0 l/m 3.5 km/h (1 Bft) W-NW 14.1 C 14.3 C
07.08.2002 02:00 14.3 C 99 % 1015.3 hPa 0.0 l/m 0.4 km/h (0 Bft) SO 14.1 C 14.3 C
07.08.2002 03:00 14.2 C 99 % 1014.9 hPa 0.9 l/m 0.6 km/h (0 Bft) SO 14.1 C 14.2 C
07.08.2002 04:00 14.1 C 100 % 1014.9 hPa 0.3 l/m 0.1 km/h (0 Bft) N 14.1 C 14.1 C
07.08.2002 05:00 14.1 C 100 % 1014.9 hPa 0.6 l/m 2.8 km/h (1 Bft) SO 14.1 C 14.1 C
07.08.2002 06:00 14.1 C 100 % 1014.9 hPa 0.3 l/m 1.0 km/h (0 Bft) SO 14.1 C 14.1 C
07.08.2002 07:00 14.3 C 100 % 1014.9 hPa 0.0 l/m 1.2 km/h (1 Bft) SO 14.3 C 14.3 C
07.08.2002 08:00 14.6 C 98 % 1015.6 hPa 0.0 l/m 0.8 km/h (0 Bft) NW 14.2 C 14.6 C
07.08.2002 09:00 15.4 C 91 % 1015.9 hPa 0.0 l/m 4.0 km/h (1 Bft) NW 14.0 C 15.4 C
07.08.2002 10:00 15.6 C 87 % 1015.9 hPa 0.0 l/m 2.7 km/h (1 Bft) NW 13.5 C 15.6 C
07.08.2002 11:00 15.6 C 90 % 1015.9 hPa 0.0 l/m 1.3 km/h (1 Bft) S-SO 14.0 C 15.6 C
07.08.2002 12:00 15.8 C 90 % 1015.9 hPa 0.0 l/m 3.7 km/h (1 Bft) W-NW 14.2 C 15.8 C
07.08.2002 13:00 15.6 C 91 % 1015.9 hPa 0.3 l/m 5.9 km/h (2 Bft) NW 14.1 C 15.6 C
07.08.2002 14:00 16.5 C 89 % 1015.9 hPa 0.0 l/m 4.2 km/h (1 Bft) W-SW 14.7 C 16.5 C
07.08.2002 15:00 17.2 C 87 % 1015.9 hPa 0.0 l/m 6.0 km/h (2 Bft) SO 15.0 C 17.2 C
07.08.2002 16:00 20.2 C 73 % 1015.1 hPa 0.0 l/m 8.3 km/h (2 Bft) O-SO 15.3 C 20.2 C
07.08.2002 17:00 19.4 C 74 % 1014.9 hPa 0.0 l/m 4.4 km/h (1 Bft) O-SO 14.7 C 19.4 C
07.08.2002 18:00 20.1 C 72 % 1015.9 hPa 0.0 l/m 6.0 km/h (2 Bft) O-SO 14.8 C 20.1 C
07.08.2002 19:00 18.3 C 75 % 1015.9 hPa 0.0 l/m 4.4 km/h (1 Bft) W-NW 13.8 C 18.3 C
07.08.2002 20:00 16.4 C 89 % 1015.9 hPa 0.0 l/m 1.0 km/h (0 Bft) O-SO 14.5 C 16.4 C
07.08.2002 21:00 15.6 C 94 % 1016.9 hPa 0.0 l/m 0.5 km/h (0 Bft) O-SO 14.7 C 15.6 C
07.08.2002 22:00 15.2 C 97 % 1017.0 hPa 0.0 l/m 1.2 km/h (1 Bft) SO 14.7 C 15.2 C
07.08.2002 23:00 14.9 C 97 % 1017.0 hPa 0.0 l/m 2.3 km/h (1 Bft) SO 14.4 C 14.9 C
08.08.2002 00:00 14.7 C 98 % 1017.0 hPa 0.0 l/m 3.2 km/h (1 Bft) O-SO 14.3 C 14.7 C
08.08.2002 01:00 14.7 C 96 % 1016.5 hPa 0.0 l/m 1.3 km/h (1 Bft) O-SO 14.1 C 14.7 C
08.08.2002 02:00 14.2 C 98 % 1015.9 hPa 0.0 l/m 0.9 km/h (0 Bft) O-SO 14.0 C 14.2 C
08.08.2002 03:00 14.2 C 99 % 1015.9 hPa 0.0 l/m 0.6 km/h (0 Bft) O-SO 14.0 C 14.2 C
08.08.2002 04:00 14.0 C 96 % 1015.9 hPa 0.0 l/m 0.7 km/h (0 Bft) O-SO 13.5 C 14.0 C
08.08.2002 05:00 13.9 C 97 % 1015.0 hPa 0.0 l/m 0.6 km/h (0 Bft) SO 13.5 C 13.9 C
08.08.2002 06:00 13.8 C 97 % 1014.9 hPa 0.0 l/m 2.4 km/h (1 Bft) O-SO 13.4 C 13.8 C
08.08.2002 07:00 14.0 C 96 % 1014.9 hPa 0.0 l/m 3.8 km/h (1 Bft) O-SO 13.3 C 14.0 C
08.08.2002 08:00 14.4 C 94 % 1014.9 hPa 0.0 l/m 1.2 km/h (1 Bft) SO 13.4 C 14.4 C
08.08.2002 09:00 15.4 C 87 % 1014.9 hPa 0.0 l/m 1.9 km/h (1 Bft) SO 13.3 C 15.4 C
08.08.2002 10:00 16.3 C 83 % 1014.9 hPa 0.0 l/m 0.8 km/h (0 Bft) O-SO 13.4 C 16.3 C
08.08.2002 11:00 17.8 C 75 % 1014.7 hPa 0.0 l/m 1.0 km/h (0 Bft) O 13.3 C 17.8 C
08.08.2002 12:00 20.2 C 63 % 1013.9 hPa 0.0 l/m 6.0 km/h (2 Bft) O-SO 13.1 C 20.2 C
08.08.2002 13:00 21.5 C 58 % 1012.9 hPa 0.0 l/m 4.6 km/h (1 Bft) O-SO 13.0 C 21.5 C
08.08.2002 14:00 23.0 C 50 % 1012.2 hPa 0.0 l/m 3.4 km/h (1 Bft) O 11.9 C 23.0 C
08.08.2002 15:00 23.8 C 42 % 1011.8 hPa 0.0 l/m 2.1 km/h (1 Bft) O-SO 10.1 C 23.8 C
08.08.2002 16:00 25.3 C 41 % 1011.8 hPa 0.0 l/m 4.2 km/h (1 Bft) NW 11.0 C 25.3 C
08.08.2002 17:00 24.2 C 44 % 1010.9 hPa 0.0 l/m 1.7 km/h (1 Bft) W-NW 11.0 C 24.2 C
08.08.2002 18:00 23.4 C 51 % 1010.4 hPa 0.0 l/m 0.3 km/h (0 Bft) NW 12.6 C 23.4 C
08.08.2002 19:00 22.7 C 55 % 1010.1 hPa 0.0 l/m 0.1 km/h (0 Bft) N-NW 13.2 C 22.7 C
08.08.2002 20:00 19.5 C 67 % 1010.0 hPa 0.0 l/m 0.3 km/h (0 Bft) O-NO 13.1 C 19.5 C
08.08.2002 21:00 17.0 C 82 % 1010.6 hPa 0.0 l/m 0.0 km/h (0 Bft) N 13.9 C 17.0 C
08.08.2002 22:00 15.7 C 89 % 1010.8 hPa 0.0 l/m 0.2 km/h (0 Bft) O 13.8 C 15.7 C
08.08.2002 23:00 14.8 C 92 % 1010.8 hPa 0.0 l/m 2.2 km/h (1 Bft) O-SO 13.4 C 14.8 C
09.08.2002 00:00 13.6 C 96 % 1010.8 hPa 0.0 l/m 1.5 km/h (1 Bft) O-SO 13.0 C 13.6 C
09.08.2002 01:00 13.0 C 98 % 1010.8 hPa 0.0 l/m 1.9 km/h (1 Bft) O-SO 12.7 C 13.0 C
09.08.2002 02:00 12.6 C 99 % 1009.9 hPa 0.0 l/m 0.4 km/h (0 Bft) O-SO 12.5 C 12.6 C
09.08.2002 03:00 12.2 C 100 % 1009.7 hPa 0.0 l/m 1.7 km/h (1 Bft) O-SO 12.1 C 12.2 C
09.08.2002 04:00 11.6 C 100 % 1009.7 hPa 0.0 l/m 0.0 km/h (0 Bft) N 11.6 C 11.6 C
09.08.2002 05:00 11.7 C 100 % 1009.4 hPa 0.0 l/m 0.8 km/h (0 Bft) O-SO 11.7 C 11.7 C
09.08.2002 06:00 12.0 C 100 % 1009.0 hPa 0.0 l/m 0.7 km/h (0 Bft) O-SO 11.9 C 12.0 C
09.08.2002 07:00 13.4 C 95 % 1009.7 hPa 0.0 l/m 0.5 km/h (0 Bft) W-NW 12.7 C 13.4 C
09.08.2002 08:00 13.8 C 94 % 1009.6 hPa 0.0 l/m 0.3 km/h (0 Bft) W-NW 12.8 C 13.8 C
09.08.2002 09:00 15.4 C 87 % 1008.7 hPa 0.0 l/m 1.0 km/h (0 Bft) O-SO 13.2 C 15.4 C
09.08.2002 10:00 18.0 C 77 % 1008.5 hPa 0.0 l/m 2.9 km/h (1 Bft) O-SO 13.8 C 18.0 C
09.08.2002 11:00 19.6 C 68 % 1007.8 hPa 0.0 l/m 7.2 km/h (2 Bft) W-NW 13.5 C 19.6 C
09.08.2002 12:00 21.2 C 61 % 1007.7 hPa 0.0 l/m 8.0 km/h (2 Bft) W-NW 13.3 C 21.2 C
09.08.2002 13:00 21.4 C 58 % 1007.0 hPa 0.0 l/m 5.9 km/h (2 Bft) W-NW 12.8 C 21.4 C
09.08.2002 14:00 22.1 C 56 % 1006.6 hPa 0.0 l/m 8.2 km/h (2 Bft) NW 13.0 C 22.1 C
09.08.2002 15:00 21.1 C 61 % 1006.6 hPa 0.0 l/m 10.8 km/h (2 Bft) W-NW 13.1 C 21.1 C
09.08.2002 16:00 18.6 C 71 % 1006.5 hPa 0.0 l/m 23.3 km/h (4 Bft) W-NW 13.2 C 18.6 C
09.08.2002 17:00 17.7 C 75 % 1006.6 hPa 0.0 l/m 20.0 km/h (4 Bft) W-NW 13.2 C 17.7 C
09.08.2002 18:00 15.8 C 84 % 1006.6 hPa 0.3 l/m 10.4 km/h (2 Bft) NW 13.0 C 15.8 C
09.08.2002 19:00 14.7 C 91 % 1006.6 hPa 0.6 l/m 2.8 km/h (1 Bft) O-NO 13.2 C 14.7 C
09.08.2002 20:00 14.4 C 92 % 1006.6 hPa 0.0 l/m 1.9 km/h (1 Bft) N-NW 13.1 C 14.4 C
09.08.2002 21:00 14.0 C 95 % 1006.8 hPa 0.0 l/m 0.3 km/h (0 Bft) W-SW 13.1 C 14.0 C
09.08.2002 22:00 13.8 C 97 % 1006.6 hPa 0.6 l/m 0.0 km/h (0 Bft) N 13.3 C 13.8 C
09.08.2002 23:00 13.8 C 99 % 1006.6 hPa 0.3 l/m 2.3 km/h (1 Bft) O 13.7 C 13.8 C
10.08.2002 00:00 13.8 C 100 % 1006.6 hPa 0.3 l/m 0.7 km/h (0 Bft) O-SO 13.8 C 13.8 C
10.08.2002 01:00 13.9 C 100 % 1005.6 hPa 0.0 l/m 0.0 km/h (0 Bft) N 13.9 C 13.9 C
10.08.2002 02:00 13.8 C 100 % 1005.6 hPa 0.0 l/m 0.0 km/h (0 Bft) N 13.8 C 13.8 C
10.08.2002 03:00 13.8 C 100 % 1005.1 hPa 0.0 l/m 0.0 km/h (0 Bft) N 13.8 C 13.8 C
10.08.2002 04:00 13.8 C 100 % 1004.5 hPa 0.3 l/m 0.0 km/h (0 Bft) N 13.8 C 13.8 C
10.08.2002 05:00 13.8 C 100 % 1004.5 hPa 0.6 l/m 0.0 km/h (0 Bft) N 13.8 C 13.8 C
10.08.2002 06:00 13.8 C 100 % 1004.2 hPa 0.3 l/m 0.2 km/h (0 Bft) O-SO 13.8 C 13.8 C
10.08.2002 07:00 13.8 C 100 % 1003.6 hPa 0.0 l/m 0.0 km/h (0 Bft) N 13.8 C 13.8 C
10.08.2002 08:00 14.3 C 99 % 1003.5 hPa 0.0 l/m 0.3 km/h (0 Bft) N 14.2 C 14.3 C
10.08.2002 09:00 14.7 C 96 % 1003.5 hPa 0.0 l/m 0.0 km/h (0 Bft) N 14.1 C 14.7 C
10.08.2002 10:00 15.1 C 93 % 1003.5 hPa 0.0 l/m 0.1 km/h (0 Bft) W-NW 14.0 C 15.1 C
10.08.2002 11:00 14.6 C 94 % 1003.5 hPa 0.9 l/m 0.7 km/h (0 Bft) NW 13.7 C 14.6 C
10.08.2002 12:00 14.4 C 95 % 1003.5 hPa 2.1 l/m 0.0 km/h (0 Bft) N 13.7 C 14.4 C
10.08.2002 13:00 14.2 C 97 % 1003.7 hPa 1.5 l/m 2.9 km/h (1 Bft) NW 13.7 C 14.2 C
10.08.2002 14:00 13.7 C 96 % 1004.5 hPa 0.9 l/m 12.3 km/h (3 Bft) NW 13.1 C 13.7 C
10.08.2002 15:00 13.6 C 96 % 1004.5 hPa 0.9 l/m 6.5 km/h (2 Bft) NW 12.9 C 13.6 C
10.08.2002 16:00 13.0 C 97 % 1004.5 hPa 0.9 l/m 4.7 km/h (1 Bft) NW 12.5 C 13.0 C
10.08.2002 17:00 13.0 C 98 % 1004.5 hPa 0.9 l/m 2.7 km/h (1 Bft) W-NW 12.7 C 13.0 C
10.08.2002 18:00 12.7 C 98 % 1004.5 hPa 1.5 l/m 3.6 km/h (1 Bft) NW 12.3 C 12.7 C
10.08.2002 19:00 12.4 C 100 % 1004.5 hPa 2.1 l/m 0.3 km/h (0 Bft) N 12.4 C 12.4 C
10.08.2002 20:00 12.2 C 100 % 1005.6 hPa 2.7 l/m 0.3 km/h (0 Bft) NO 12.2 C 12.2 C
10.08.2002 21:00 11.9 C 100 % 1006.0 hPa 2.4 l/m 1.8 km/h (1 Bft) SO 11.9 C 11.9 C
10.08.2002 22:00 11.7 C 100 % 1006.6 hPa 2.4 l/m 0.8 km/h (0 Bft) O-SO 11.7 C 11.7 C
10.08.2002 23:00 11.7 C 100 % 1006.6 hPa 2.7 l/m 2.4 km/h (1 Bft) SO 11.7 C 11.7 C
11.08.2002 00:00 11.6 C 100 % 1006.6 hPa 0.3 l/m 2.0 km/h (1 Bft) SO 11.6 C 11.6 C
11.08.2002 01:00 11.5 C 100 % 1006.6 hPa 0.3 l/m 0.9 km/h (0 Bft) S-SO 11.5 C 11.5 C
11.08.2002 02:00 11.5 C 100 % 1005.9 hPa 0.0 l/m 0.2 km/h (0 Bft) N 11.5 C 11.5 C
11.08.2002 03:00 11.5 C 100 % 1005.6 hPa 0.0 l/m 0.5 km/h (0 Bft) W 11.5 C 11.5 C
11.08.2002 04:00 11.5 C 100 % 1005.3 hPa 0.3 l/m 1.0 km/h (0 Bft) W-NW 11.5 C 11.5 C
11.08.2002 05:00 11.6 C 100 % 1004.5 hPa 0.9 l/m 0.5 km/h (0 Bft) O-NO 11.6 C 11.6 C
11.08.2002 06:00 11.6 C 100 % 1004.5 hPa 0.6 l/m 0.6 km/h (0 Bft) W-NW 11.6 C 11.6 C
11.08.2002 07:00 11.7 C 100 % 1004.5 hPa 0.9 l/m 1.9 km/h (1 Bft) W-NW 11.7 C 11.7 C
11.08.2002 08:00 11.9 C 100 % 1004.5 hPa 0.9 l/m 3.7 km/h (1 Bft) W-NW 11.9 C 11.9 C
11.08.2002 09:00 12.1 C 100 % 1004.5 hPa 2.1 l/m 3.4 km/h (1 Bft) S 12.1 C 12.1 C
11.08.2002 10:00 12.4 C 100 % 1004.5 hPa 0.6 l/m 3.2 km/h (1 Bft) SO 12.4 C 12.4 C
11.08.2002 11:00 12.8 C 100 % 1005.3 hPa 0.3 l/m 4.7 km/h (1 Bft) SO 12.8 C 12.8 C
11.08.2002 12:00 13.1 C 98 % 1005.6 hPa 0.0 l/m 6.5 km/h (2 Bft) SO 12.8 C 13.1 C
11.08.2002 13:00 13.3 C 99 % 1005.6 hPa 0.0 l/m 5.2 km/h (1 Bft) SO 13.1 C 13.3 C
11.08.2002 14:00 13.9 C 99 % 1005.6 hPa 0.3 l/m 1.5 km/h (1 Bft) SO 13.8 C 13.9 C
11.08.2002 15:00 14.3 C 98 % 1005.6 hPa 0.3 l/m 5.6 km/h (1 Bft) NW 14.0 C 14.3 C
11.08.2002 16:00 14.6 C 97 % 1005.6 hPa 0.6 l/m 12.0 km/h (2 Bft) NW 14.2 C 14.6 C
11.08.2002 17:00 14.9 C 96 % 1005.6 hPa 0.0 l/m 11.9 km/h (2 Bft) NW 14.3 C 14.9 C
11.08.2002 18:00 15.2 C 94 % 1005.6 hPa 0.0 l/m 13.5 km/h (3 Bft) NW 14.2 C 15.2 C
11.08.2002 19:00 15.3 C 95 % 1006.4 hPa 0.0 l/m 5.8 km/h (2 Bft) N 14.5 C 15.3 C
11.08.2002 20:00 15.4 C 93 % 1006.6 hPa 0.0 l/m 10.0 km/h (2 Bft) NW 14.3 C 15.4 C
11.08.2002 21:00 15.8 C 91 % 1007.3 hPa 0.0 l/m 16.1 km/h (3 Bft) NW 14.3 C 15.8 C
11.08.2002 22:00 16.0 C 89 % 1007.7 hPa 0.0 l/m 18.8 km/h (3 Bft) W-NW 14.2 C 16.0 C
11.08.2002 23:00 16.0 C 88 % 1008.4 hPa 0.0 l/m 16.8 km/h (3 Bft) NW 14.0 C 16.0 C
Min-Datum _ 09.08.02 08.08.02 10.08.02 - 05.08.02 - 05.08.02 09.08.02
_ Min-Zeit 04:51 16:41 06:40 - 00:02 - 15:38 04:51
Minimum _ 11.3 C 37 % 1003.5 hPa - 0.0 km/h (0 Bft) - 8.9 C 11.3 C
Max-Datum _ 08.08.02 05.08.02 07.08.02 10.08.02 09.08.02 - 07.08.02 08.08.02
_ Max-Zeit 16:20 00:02 21:04 22:00 16:51 - 16:49 16:20
Maximum _ 25.8 C 100 % 1017.0 hPa 2.7 l/m 43.1 km/h
W-NW (6 Bft)
- 16.5 C 25.8 C
Durchschnitt _ 15.8 C 87 % 1010.7 hPa #40.8 l/m 3.2 km/h (1 Bft) NW 13.3 C 15.8 C

Durchschnitt Minimum Temp.15.2 C
Durchschnitt Maximum Temp.16.3 C
© Kaiko 2002